createdAt,value
2019-03-22T00:03:07.416Z,74.56
2019-03-22T00:08:13.233Z,74.95
2019-03-22T00:13:18.978Z,76.38
2019-03-22T00:18:24.891Z,74.49
2019-03-22T00:23:30.627Z,74.73
2019-03-22T00:28:36.499Z,75.53
2019-03-22T00:33:42.255Z,76.62
2019-03-22T00:38:49.282Z,75.03
2019-03-22T00:43:55.217Z,75.12
2019-03-22T00:49:01.075Z,75.65
2019-03-22T00:54:06.893Z,76.74
2019-03-22T00:59:12.670Z,77.62
2019-03-22T01:04:18.563Z,76.06
2019-03-22T01:09:24.690Z,75.87
2019-03-22T01:14:30.424Z,76.18
2019-03-22T01:19:36.215Z,76.31
2019-03-22T01:24:42.118Z,77.66
2019-03-22T01:29:48.033Z,78.05
2019-03-22T01:34:53.889Z,77.08
2019-03-22T01:40:00.442Z,76.01
2019-03-22T01:45:07.832Z,76.46
2019-03-22T01:50:14.507Z,77.48
2019-03-22T01:55:20.314Z,76.27
2019-03-22T02:00:26.618Z,76.88
2019-03-22T02:05:32.424Z,78.17
2019-03-22T02:10:38.179Z,78.63
2019-03-22T02:15:44.369Z,78.01
2019-03-22T02:20:50.205Z,77.00
2019-03-22T02:25:55.984Z,77.02
2019-03-22T02:31:01.757Z,77.90
2019-03-22T02:36:07.510Z,78.22
2019-03-22T02:41:13.246Z,77.45
2019-03-22T02:46:18.983Z,77.28
2019-03-22T02:51:25.931Z,77.27
2019-03-22T02:56:31.701Z,79.09
2019-03-22T03:01:37.786Z,79.04
2019-03-22T03:06:43.585Z,78.79
2019-03-22T03:11:49.327Z,78.96
2019-03-22T03:16:55.131Z,78.09
2019-03-22T03:22:00.896Z,78.30
2019-03-22T03:27:06.724Z,78.04
2019-03-22T03:32:12.570Z,77.46
2019-03-22T03:37:18.423Z,78.09
2019-03-22T03:42:24.195Z,79.73
2019-03-22T03:47:30.079Z,79.69
2019-03-22T03:52:39.378Z,78.66
2019-03-22T03:57:43.414Z,78.18
2019-03-22T04:02:49.410Z,79.67
2019-03-22T04:07:55.198Z,79.50
2019-03-22T04:13:00.952Z,79.53
2019-03-22T04:18:06.704Z,78.41
2019-03-22T04:23:12.509Z,78.16
2019-03-22T04:28:19.481Z,79.45
2019-03-22T04:33:25.190Z,79.72
2019-03-22T04:38:31.394Z,79.87
2019-03-22T04:43:37.289Z,79.66
2019-03-22T04:48:43.965Z,79.78
2019-03-22T04:53:56.909Z,79.61
2019-03-22T04:59:05.576Z,79.02
2019-03-22T05:04:12.062Z,77.99
2019-03-22T05:09:18.961Z,79.21
2019-03-22T05:14:25.761Z,79.81
2019-03-22T05:19:35.521Z,79.92
2019-03-22T05:24:44.464Z,79.80
2019-03-22T05:29:52.024Z,80.45
2019-03-22T05:34:57.739Z,79.80
2019-03-22T05:40:03.943Z,80.38
2019-03-22T05:45:09.987Z,80.89
2019-03-22T05:50:15.800Z,81.25
2019-03-22T05:55:21.679Z,80.27
2019-03-22T06:00:27.773Z,79.15
2019-03-22T06:05:33.639Z,79.45
2019-03-22T06:10:39.431Z,79.64
2019-03-22T06:15:45.617Z,79.22
2019-03-22T06:20:51.480Z,79.84
2019-03-22T06:25:57.245Z,78.75
2019-03-22T06:31:02.986Z,77.90
2019-03-22T06:36:08.758Z,78.53
2019-03-22T06:41:14.524Z,77.13
2019-03-22T06:46:20.939Z,76.68
2019-03-22T06:51:26.685Z,76.11
2019-03-22T06:56:32.524Z,75.83
2019-03-22T07:01:38.292Z,74.87
2019-03-22T07:06:44.057Z,73.39
2019-03-22T07:11:49.932Z,72.07
2019-03-22T07:16:55.742Z,71.63
2019-03-22T07:22:02.093Z,70.19
2019-03-22T07:27:08.205Z,69.79
2019-03-22T07:32:13.968Z,68.87
2019-03-22T07:37:19.886Z,68.78
2019-03-22T07:42:25.772Z,67.87
2019-03-22T07:47:31.645Z,67.05
2019-03-22T07:52:37.340Z,66.16
2019-03-22T07:57:43.301Z,65.85
2019-03-22T08:02:49.398Z,65.54
2019-03-22T08:07:56.220Z,65.29
2019-03-22T08:13:02.474Z,65.21
2019-03-22T08:18:08.399Z,64.38
2019-03-22T08:23:22.108Z,64.42
2019-03-22T08:28:27.848Z,63.25
2019-03-22T08:33:33.678Z,62.29
2019-03-22T08:38:39.503Z,62.10
2019-03-22T08:43:45.383Z,62.04
2019-03-22T08:48:51.186Z,60.45
2019-03-22T08:53:57.054Z,60.70
2019-03-22T08:59:03.075Z,60.18
2019-03-22T09:04:08.802Z,59.89
2019-03-22T09:09:14.745Z,60.01
2019-03-22T09:14:20.527Z,60.36
2019-03-22T09:19:26.303Z,58.72
2019-03-22T09:24:39.032Z,57.97
2019-03-22T09:29:39.444Z,57.39
2019-03-22T09:34:45.325Z,56.24
2019-03-22T09:39:51.042Z,56.00
2019-03-22T09:44:56.981Z,55.17
2019-03-22T09:50:03.602Z,54.29
2019-03-22T09:55:13.714Z,52.30
2019-03-22T10:00:34.839Z,52.60
2019-03-22T10:05:40.686Z,51.95
2019-03-22T10:10:46.589Z,49.12
2019-03-22T10:15:52.882Z,48.66
2019-03-22T10:20:58.864Z,49.12
2019-03-22T10:26:04.735Z,47.24
2019-03-22T10:31:10.485Z,47.12
2019-03-22T10:36:16.240Z,46.72
2019-03-22T10:41:22.145Z,45.66
2019-03-22T10:46:28.003Z,45.70
2019-03-22T10:51:33.761Z,46.20
2019-03-22T10:56:39.501Z,46.22
2019-03-22T11:01:52.414Z,46.18
2019-03-22T11:06:53.016Z,46.40
2019-03-22T11:11:58.875Z,46.20
2019-03-22T11:17:04.796Z,45.37
2019-03-22T11:27:08.035Z,44.07
2019-03-22T11:32:13.866Z,44.74
2019-03-22T11:37:19.729Z,43.33
2019-03-22T11:42:25.597Z,44.07
2019-03-22T11:47:31.401Z,43.31
2019-03-22T11:52:37.340Z,42.82
2019-03-22T11:57:43.722Z,40.51
2019-03-22T12:02:49.537Z,39.72
2019-03-22T12:07:55.427Z,38.38
2019-03-22T12:13:01.306Z,37.80
2019-03-22T12:18:07.349Z,36.69
2019-03-22T12:23:13.579Z,35.28
2019-03-22T12:28:20.215Z,33.20
2019-03-22T12:33:27.730Z,33.22
2019-03-22T12:38:33.619Z,32.26
2019-03-22T12:43:39.392Z,31.18
2019-03-22T12:48:45.248Z,32.06
2019-03-22T12:53:51.180Z,28.30
2019-03-22T12:59:07.633Z,28.40
2019-03-22T13:04:13.494Z,27.42
2019-03-22T13:10:36.425Z,27.28
2019-03-22T13:15:42.347Z,26.27
2019-03-22T13:20:48.466Z,24.66
2019-03-22T13:25:55.078Z,23.96
2019-03-22T13:31:00.864Z,25.08
2019-03-22T13:36:07.843Z,22.76
2019-03-22T13:41:13.719Z,24.98
2019-03-22T13:46:19.489Z,27.73
2019-03-22T13:51:25.432Z,29.17
2019-03-22T13:56:31.512Z,30.69
2019-03-22T14:01:37.526Z,31.12
2019-03-22T14:06:43.314Z,31.31
2019-03-22T14:11:49.145Z,32.56
2019-03-22T14:16:55.337Z,33.57
2019-03-22T14:22:01.258Z,35.13
2019-03-22T14:27:07.191Z,34.18
2019-03-22T14:32:13.026Z,34.14
2019-03-22T14:37:18.886Z,34.60
2019-03-22T14:42:24.609Z,35.73
2019-03-22T14:47:30.429Z,35.79
2019-03-22T14:52:36.370Z,37.32
2019-03-22T14:57:48.692Z,35.99
2019-03-22T15:02:50.706Z,35.86
2019-03-22T15:07:56.556Z,37.89
2019-03-22T15:13:02.651Z,36.23
2019-03-22T15:18:27.544Z,36.48
2019-03-22T15:23:51.123Z,36.35
2019-03-22T15:29:34.346Z,35.93
2019-03-22T15:34:59.132Z,37.04
2019-03-22T15:40:05.374Z,36.45
2019-03-22T15:45:13.024Z,36.16
2019-03-22T15:50:18.962Z,35.54
2019-03-22T15:55:24.872Z,35.90
2019-03-22T16:00:30.791Z,35.75
2019-03-22T16:05:36.686Z,36.04
2019-03-22T16:10:42.534Z,35.90
2019-03-22T16:15:49.597Z,36.81
2019-03-22T16:20:59.983Z,37.05
2019-03-22T16:26:03.101Z,37.38
2019-03-22T16:31:09.697Z,37.26
2019-03-22T16:36:15.520Z,37.94
2019-03-22T16:41:21.426Z,38.12
2019-03-22T16:46:27.242Z,38.24
2019-03-22T16:51:33.003Z,38.07
2019-03-22T16:56:38.830Z,38.94
2019-03-22T17:01:45.257Z,39.56
2019-03-22T17:06:51.012Z,39.50
2019-03-22T17:11:57.292Z,40.32
2019-03-22T17:17:03.437Z,40.53
2019-03-22T17:22:09.286Z,41.25
2019-03-22T17:27:15.025Z,41.81
2019-03-22T17:32:21.137Z,42.27
2019-03-22T17:37:26.996Z,42.68
2019-03-22T17:42:32.734Z,43.47
2019-03-22T17:47:38.460Z,43.39
2019-03-22T17:52:44.576Z,43.78
2019-03-22T17:57:50.372Z,44.28
2019-03-22T18:02:56.258Z,46.91
2019-03-22T18:08:02.135Z,47.32
2019-03-22T18:13:07.856Z,48.22
2019-03-22T18:18:15.222Z,49.00
2019-03-22T18:23:23.013Z,49.11
2019-03-22T18:28:29.298Z,51.02
2019-03-22T18:33:35.633Z,52.11
2019-03-22T18:38:41.378Z,52.54
2019-03-22T18:43:47.171Z,53.43
2019-03-22T18:48:53.603Z,53.86
2019-03-22T18:54:00.325Z,53.77
2019-03-22T18:59:06.508Z,54.42
2019-03-22T19:04:12.330Z,54.59
2019-03-22T19:09:18.208Z,56.25
2019-03-22T19:14:23.939Z,56.92
2019-03-22T19:19:29.935Z,56.98
2019-03-22T19:24:37.102Z,57.39
2019-03-22T19:29:42.860Z,57.30
2019-03-22T19:34:54.391Z,57.62
2019-03-22T19:39:56.442Z,56.18
2019-03-22T19:45:02.258Z,56.60
2019-03-22T19:50:10.171Z,57.51
2019-03-22T19:55:16.122Z,58.03
2019-03-22T20:00:22.271Z,58.72
2019-03-22T20:05:32.226Z,60.02
2019-03-22T20:10:38.244Z,62.24
2019-03-22T20:15:44.708Z,62.37
2019-03-22T20:20:50.610Z,61.70
2019-03-22T20:25:56.501Z,61.87
2019-03-22T20:31:02.725Z,61.93
2019-03-22T20:36:08.585Z,62.31
2019-03-22T20:41:14.446Z,62.78
2019-03-22T20:46:20.302Z,63.90
2019-03-22T20:51:26.237Z,64.57
2019-03-22T20:56:32.056Z,66.08
2019-03-22T21:01:37.881Z,66.01
2019-03-22T21:06:44.312Z,64.96
2019-03-22T21:11:51.123Z,65.52
2019-03-22T21:16:57.056Z,66.27
2019-03-22T21:22:03.203Z,66.84
2019-03-22T21:27:15.484Z,67.09
2019-03-22T21:32:16.587Z,67.29
2019-03-22T21:37:22.314Z,68.24
2019-03-22T21:42:28.070Z,69.12
2019-03-22T21:47:33.900Z,69.80
2019-03-22T21:52:39.953Z,70.00
2019-03-22T21:57:46.103Z,68.57
2019-03-22T22:02:51.893Z,69.10
2019-03-22T22:07:57.688Z,69.07
2019-03-22T22:13:03.456Z,68.72
2019-03-22T22:18:09.441Z,69.29
2019-03-22T22:23:15.392Z,69.51
2019-03-22T22:28:22.587Z,69.31
2019-03-22T22:33:28.372Z,71.00
2019-03-22T22:38:34.316Z,71.67
2019-03-22T22:43:40.522Z,70.37
2019-03-22T22:48:48.157Z,69.56
2019-03-22T22:53:54.049Z,70.11
2019-03-22T22:59:00.702Z,70.62
2019-03-22T23:04:06.959Z,70.29
2019-03-22T23:09:12.790Z,70.57
2019-03-22T23:14:18.547Z,70.75
2019-03-22T23:19:24.318Z,70.84
2019-03-22T23:24:30.257Z,71.30
2019-03-22T23:29:36.075Z,72.84
2019-03-22T23:34:41.914Z,73.54
2019-03-22T23:39:47.908Z,73.44
2019-03-22T23:44:54.235Z,72.21
2019-03-22T23:50:00.574Z,72.85
2019-03-22T23:55:07.615Z,73.01
